createdAt,value
2024-03-13T00:01:11.431Z,14.56
2024-03-13T00:03:38.831Z,14.58
2024-03-13T00:06:06.303Z,14.58
2024-03-13T00:08:33.406Z,14.60
2024-03-13T00:11:00.770Z,14.56
2024-03-13T00:13:30.409Z,14.63
2024-03-13T00:15:59.843Z,14.64
2024-03-13T00:18:26.939Z,14.63
2024-03-13T00:20:54.010Z,14.59
2024-03-13T00:23:21.129Z,14.51
2024-03-13T00:25:48.307Z,14.39
2024-03-13T00:28:15.591Z,14.39
2024-03-13T00:30:42.910Z,14.35
2024-03-13T00:33:10.319Z,14.27
2024-03-13T00:35:37.873Z,14.27
2024-03-13T00:38:06.715Z,14.29
2024-03-13T00:40:36.042Z,14.29
2024-03-13T00:43:03.472Z,14.28
2024-03-13T00:45:30.732Z,14.35
2024-03-13T00:47:57.835Z,14.36
2024-03-13T00:50:25.460Z,14.36
2024-03-13T00:52:55.080Z,14.35
2024-03-13T00:55:23.086Z,14.35
2024-03-13T00:57:50.739Z,14.35
2024-03-13T01:00:20.257Z,14.39
2024-03-13T01:02:48.365Z,14.34
2024-03-13T01:05:16.556Z,14.43
2024-03-13T01:07:50.081Z,14.49
2024-03-13T01:10:17.739Z,14.51
2024-03-13T01:12:45.204Z,14.56
2024-03-13T01:15:15.964Z,14.57
2024-03-13T01:17:43.522Z,14.52
2024-03-13T01:20:16.261Z,14.58
2024-03-13T01:22:45.261Z,14.61
2024-03-13T01:25:12.902Z,14.64
2024-03-13T01:27:43.091Z,14.66
2024-03-13T01:30:11.458Z,14.64
2024-03-13T01:32:39.523Z,14.66
2024-03-13T01:35:07.872Z,14.67
2024-03-13T01:37:53.590Z,14.63
2024-03-13T01:40:26.980Z,14.55
2024-03-13T01:43:13.124Z,14.55
2024-03-13T01:46:07.966Z,14.54
2024-03-13T01:48:56.374Z,14.44
2024-03-13T01:51:42.910Z,14.43
2024-03-13T01:54:29.064Z,14.46
2024-03-13T01:57:01.172Z,14.43
2024-03-13T01:59:40.274Z,14.45
2024-03-13T02:02:23.431Z,14.42
2024-03-13T02:04:53.037Z,14.50
2024-03-13T02:07:24.181Z,14.50
2024-03-13T02:09:52.085Z,14.46
2024-03-13T02:12:19.460Z,14.48
2024-03-13T02:14:46.779Z,14.47
2024-03-13T02:17:14.071Z,14.49
2024-03-13T02:19:41.717Z,14.51
2024-03-13T02:22:08.930Z,14.53
2024-03-13T02:24:36.126Z,14.56
2024-03-13T02:27:13.263Z,14.61
2024-03-13T02:29:42.825Z,14.57
2024-03-13T02:32:12.309Z,14.63
2024-03-13T02:34:41.957Z,14.63
2024-03-13T02:37:09.275Z,14.66
2024-03-13T02:39:36.689Z,14.65
2024-03-13T02:42:03.848Z,14.72
2024-03-13T02:44:31.507Z,14.73
2024-03-13T02:46:58.584Z,14.77
2024-03-13T02:49:25.759Z,14.77
2024-03-13T02:51:53.265Z,14.80
2024-03-13T02:54:20.416Z,14.83
2024-03-13T02:56:48.009Z,14.84
2024-03-13T02:59:19.077Z,14.87
2024-03-13T03:01:46.230Z,14.87
2024-03-13T03:04:13.414Z,14.89
2024-03-13T03:06:41.785Z,14.91
2024-03-13T03:09:11.525Z,14.91
2024-03-13T03:11:38.662Z,14.98
2024-03-13T03:14:06.287Z,14.99
2024-03-13T03:16:33.545Z,15.00
2024-03-13T03:19:01.127Z,15.03
2024-03-13T03:21:28.296Z,15.06
2024-03-13T03:23:55.362Z,15.07
2024-03-13T03:26:22.520Z,15.07
2024-03-13T03:28:49.696Z,15.07
2024-03-13T03:31:17.097Z,15.07
2024-03-13T03:33:44.260Z,15.09
2024-03-13T03:36:11.457Z,15.08
2024-03-13T03:38:38.565Z,15.07
2024-03-13T03:41:05.728Z,15.06
2024-03-13T03:43:33.289Z,15.03
2024-03-13T03:46:00.860Z,15.07
2024-03-13T03:48:28.134Z,15.09
2024-03-13T03:50:55.197Z,15.12
2024-03-13T03:53:22.227Z,15.11
2024-03-13T03:55:49.270Z,15.14
2024-03-13T03:58:16.410Z,15.13
2024-03-13T04:00:43.505Z,15.14
2024-03-13T04:03:10.825Z,15.16
2024-03-13T04:05:37.975Z,15.15
2024-03-13T04:08:05.765Z,15.20
2024-03-13T04:10:33.295Z,15.21
2024-03-13T04:13:01.314Z,15.23
2024-03-13T04:15:28.453Z,15.23
2024-03-13T04:17:56.005Z,15.23
2024-03-13T04:20:23.692Z,15.26
2024-03-13T04:22:51.685Z,15.26
2024-03-13T04:25:20.017Z,15.27
2024-03-13T04:27:48.597Z,15.21
2024-03-13T04:30:15.901Z,15.28
2024-03-13T04:32:43.190Z,15.28
2024-03-13T04:35:10.472Z,15.28
2024-03-13T04:37:40.400Z,15.30
2024-03-13T04:40:10.646Z,15.34
2024-03-13T04:42:38.160Z,15.31
2024-03-13T04:45:08.091Z,15.32
2024-03-13T04:47:39.607Z,15.30
2024-03-13T04:50:09.981Z,15.29
2024-03-13T04:52:37.316Z,15.19
2024-03-13T04:55:05.379Z,15.13
2024-03-13T04:57:34.152Z,15.17
2024-03-13T05:00:01.301Z,15.16
2024-03-13T05:02:28.428Z,15.18
2024-03-13T05:04:55.533Z,15.20
2024-03-13T05:07:23.533Z,15.21
2024-03-13T05:09:52.694Z,15.18
2024-03-13T05:12:19.849Z,15.18
2024-03-13T05:14:47.449Z,15.22
2024-03-13T05:17:17.235Z,15.19
2024-03-13T05:19:44.530Z,15.18
2024-03-13T05:22:11.716Z,15.16
2024-03-13T05:24:38.816Z,15.13
2024-03-13T05:27:06.734Z,15.13
2024-03-13T05:29:33.976Z,15.17
2024-03-13T05:32:08.501Z,15.21
2024-03-13T05:34:35.804Z,15.13
2024-03-13T05:37:03.090Z,15.08
2024-03-13T05:39:30.339Z,15.04
2024-03-13T05:41:57.868Z,15.00
2024-03-13T05:44:25.454Z,14.94
2024-03-13T05:46:52.792Z,14.89
2024-03-13T05:49:20.110Z,14.91
2024-03-13T05:51:48.701Z,14.88
2024-03-13T05:54:15.906Z,14.90
2024-03-13T05:56:44.439Z,14.94
2024-03-13T05:59:11.558Z,14.94
2024-03-13T06:01:39.179Z,14.93
2024-03-13T06:04:06.546Z,14.93
2024-03-13T06:06:33.676Z,14.94
2024-03-13T06:09:00.971Z,14.96
2024-03-13T06:11:28.915Z,14.92
2024-03-13T06:13:56.549Z,14.91
2024-03-13T06:16:23.717Z,14.90
2024-03-13T06:18:51.429Z,14.87
2024-03-13T06:21:20.282Z,14.86
2024-03-13T06:23:53.389Z,14.82
2024-03-13T06:26:22.175Z,14.81
2024-03-13T06:29:08.320Z,14.88
2024-03-13T06:31:41.083Z,14.90
2024-03-13T06:34:11.742Z,14.92
2024-03-13T06:36:40.440Z,14.95
2024-03-13T06:39:08.458Z,14.98
2024-03-13T06:41:35.596Z,15.02
2024-03-13T06:44:03.265Z,15.03
2024-03-13T06:46:30.891Z,15.01
2024-03-13T06:48:58.036Z,15.05
2024-03-13T06:51:25.284Z,15.06
2024-03-13T06:53:52.342Z,15.04
2024-03-13T06:56:19.461Z,15.09
2024-03-13T06:58:46.953Z,15.09
2024-03-13T07:01:14.760Z,15.12
2024-03-13T07:03:42.882Z,15.14
2024-03-13T07:06:13.440Z,15.18
2024-03-13T07:08:40.521Z,15.18
2024-03-13T07:11:07.929Z,15.25
2024-03-13T07:13:35.833Z,15.23
2024-03-13T07:16:03.008Z,15.22
2024-03-13T07:18:33.311Z,15.29
2024-03-13T07:21:00.474Z,15.26
2024-03-13T07:23:28.173Z,15.26
2024-03-13T07:25:56.509Z,15.29
2024-03-13T07:28:23.798Z,15.30
2024-03-13T07:30:51.014Z,15.37
2024-03-13T07:33:18.704Z,15.43
2024-03-13T07:35:45.836Z,15.44
2024-03-13T07:38:13.018Z,15.48
2024-03-13T07:40:43.553Z,15.52
2024-03-13T07:43:10.787Z,15.51
2024-03-13T07:45:39.269Z,15.60
2024-03-13T07:48:09.847Z,15.68
2024-03-13T07:50:39.971Z,15.68
2024-03-13T07:53:07.847Z,15.69
2024-03-13T07:55:35.688Z,15.71
2024-03-13T07:58:04.323Z,15.78
2024-03-13T08:00:36.453Z,15.82
2024-03-13T08:03:04.070Z,15.88
2024-03-13T08:05:31.306Z,15.97
2024-03-13T09:05:55.696Z,16.72
2024-03-13T09:08:35.991Z,16.77
2024-03-13T09:11:13.812Z,16.82
2024-03-13T09:13:45.218Z,16.91
2024-03-13T09:16:15.710Z,16.95
2024-03-13T09:18:43.259Z,17.00
2024-03-13T09:21:13.487Z,17.08
2024-03-13T09:23:40.823Z,17.08
2024-03-13T09:26:08.085Z,17.14
2024-03-13T09:28:35.158Z,17.18
2024-03-13T09:31:03.817Z,17.25
2024-03-13T09:33:32.714Z,17.22
2024-03-13T09:36:01.937Z,17.35
2024-03-13T09:38:29.252Z,17.35
2024-03-13T09:40:56.524Z,17.41
2024-03-13T09:43:30.237Z,17.46
2024-03-13T09:45:58.112Z,17.47
2024-03-13T09:48:26.476Z,17.45
2024-03-13T09:50:57.700Z,17.52
2024-03-13T09:53:25.803Z,17.54
2024-03-13T09:55:54.102Z,17.58
2024-03-13T09:58:22.700Z,17.62
2024-03-13T10:00:54.784Z,17.67
2024-03-13T10:03:26.814Z,17.71
2024-03-13T10:06:13.779Z,17.72
2024-03-13T10:08:45.921Z,17.69
2024-03-13T10:11:16.709Z,17.74
2024-03-13T10:13:45.483Z,17.74
2024-03-13T10:16:13.456Z,17.80
2024-03-13T10:18:49.486Z,17.88
2024-03-13T10:21:28.230Z,17.95
2024-03-13T10:24:00.450Z,17.96
2024-03-13T10:26:30.206Z,17.94
2024-03-13T10:28:58.646Z,18.00
2024-03-13T10:31:26.618Z,18.13
2024-03-13T10:33:57.674Z,18.16
2024-03-13T10:36:25.243Z,18.21
2024-03-13T10:38:54.351Z,18.30
2024-03-13T10:41:21.779Z,18.34
2024-03-13T10:43:49.008Z,18.39
2024-03-13T10:46:16.510Z,18.41
2024-03-13T10:48:43.813Z,18.49
2024-03-13T10:51:15.387Z,18.57
2024-03-13T10:53:46.433Z,18.67
2024-03-13T10:56:15.986Z,18.67
2024-03-13T10:58:48.284Z,18.73
2024-03-13T11:01:20.091Z,18.74
2024-03-13T11:03:57.317Z,18.79
2024-03-13T11:06:25.808Z,18.87
2024-03-13T11:08:53.698Z,18.88
2024-03-13T11:11:28.228Z,18.89
2024-03-13T11:13:57.788Z,18.89
2024-03-13T11:16:26.568Z,18.88
2024-03-13T11:18:57.714Z,18.85
2024-03-13T11:21:46.438Z,18.86
2024-03-13T11:24:26.393Z,18.78
2024-03-13T11:26:54.259Z,18.79
2024-03-13T11:29:35.680Z,18.83
2024-03-13T11:32:04.103Z,18.61
2024-03-13T11:34:31.355Z,18.73
2024-03-13T11:36:59.563Z,18.77
2024-03-13T11:39:27.249Z,18.83
2024-03-13T11:41:54.340Z,18.91
2024-03-13T11:44:21.387Z,18.95
2024-03-13T11:46:51.181Z,18.96
2024-03-13T11:49:20.703Z,18.96
2024-03-13T11:52:04.295Z,18.99
2024-03-13T11:54:33.766Z,18.92
2024-03-13T11:57:14.318Z,18.95
2024-03-13T11:59:57.638Z,18.91
2024-03-13T12:02:33.238Z,18.90
2024-03-13T12:05:07.964Z,18.91
2024-03-13T12:07:43.886Z,18.89
2024-03-13T12:10:21.029Z,18.89
2024-03-13T12:12:48.568Z,18.87
2024-03-13T12:15:21.159Z,18.87
2024-03-13T12:17:53.128Z,18.90
2024-03-13T12:20:23.402Z,18.94
2024-03-13T12:22:52.762Z,18.90
2024-03-13T12:25:23.337Z,18.99
2024-03-13T12:27:52.015Z,19.03
2024-03-13T12:30:21.796Z,19.07
2024-03-13T12:32:59.739Z,19.06
2024-03-13T12:35:27.777Z,19.11
2024-03-13T12:37:58.290Z,19.16
2024-03-13T12:40:26.519Z,19.15
2024-03-13T12:42:54.027Z,19.24
2024-03-13T12:45:22.765Z,19.27
2024-03-13T12:47:50.280Z,19.33
2024-03-13T12:50:19.499Z,19.37
2024-03-13T12:52:48.010Z,19.42
2024-03-13T12:55:21.379Z,19.43
2024-03-13T12:57:49.958Z,19.50
2024-03-13T13:00:21.693Z,19.52
2024-03-13T13:02:54.617Z,19.58
2024-03-13T13:05:22.454Z,19.61
2024-03-13T13:07:57.570Z,19.70
2024-03-13T13:10:26.549Z,19.71
2024-03-13T13:12:57.933Z,19.74
2024-03-13T13:15:28.426Z,19.71
2024-03-13T13:17:55.745Z,19.67
2024-03-13T13:20:25.725Z,19.67
2024-03-13T13:22:53.919Z,19.61
2024-03-13T13:25:23.463Z,19.58
2024-03-13T13:27:52.452Z,19.58
2024-03-13T13:30:20.261Z,19.53
2024-03-13T13:32:49.052Z,19.45
2024-03-13T13:35:16.536Z,19.48
2024-03-13T13:37:47.749Z,19.45
2024-03-13T13:40:21.248Z,19.25
2024-03-13T13:42:53.470Z,19.29
2024-03-13T13:45:24.121Z,19.32
2024-03-13T13:47:55.510Z,19.24
2024-03-13T13:50:23.081Z,19.25
2024-03-13T13:52:50.802Z,19.19
2024-03-13T13:55:18.768Z,19.28
2024-03-13T13:57:52.776Z,19.28
2024-03-13T14:00:24.308Z,19.27
2024-03-13T14:02:53.993Z,19.34
2024-03-13T14:05:21.738Z,19.37
2024-03-13T14:07:51.961Z,19.43
2024-03-13T14:10:20.031Z,19.48
2024-03-13T14:12:49.491Z,19.45
2024-03-13T14:15:20.958Z,19.53
2024-03-13T14:17:51.031Z,19.39
2024-03-13T14:20:22.919Z,19.48
2024-03-13T14:22:55.917Z,19.54
2024-03-13T14:25:27.514Z,19.52
2024-03-13T14:27:55.260Z,19.54
2024-03-13T14:30:22.938Z,19.56
2024-03-13T14:32:50.308Z,19.56
2024-03-13T14:35:17.444Z,19.57
2024-03-13T14:37:44.636Z,19.60
2024-03-13T14:40:12.931Z,19.62
2024-03-13T14:42:40.255Z,19.60
2024-03-13T14:45:08.140Z,19.65
2024-03-13T14:47:35.968Z,19.63
2024-03-13T14:50:03.343Z,19.64
2024-03-13T14:52:30.461Z,19.67
2024-03-13T14:54:58.198Z,19.65
2024-03-13T14:57:28.806Z,19.66
2024-03-13T14:59:56.401Z,19.71
2024-03-13T15:02:23.486Z,19.72
2024-03-13T15:04:53.835Z,19.74
2024-03-13T15:07:20.954Z,19.75
2024-03-13T15:09:49.780Z,19.77
2024-03-13T15:12:17.116Z,19.78
2024-03-13T15:14:45.528Z,19.76
2024-03-13T15:17:14.510Z,19.76
2024-03-13T15:19:45.709Z,19.76
2024-03-13T15:22:13.636Z,19.78
2024-03-13T15:24:42.246Z,19.73
2024-03-13T15:27:09.518Z,19.81
2024-03-13T15:29:38.207Z,19.82
2024-03-13T15:32:06.873Z,19.82
2024-03-13T15:34:34.053Z,19.84
2024-03-13T15:37:01.833Z,19.81
2024-03-13T15:39:29.195Z,19.85
2024-03-13T15:41:56.428Z,19.83
2024-03-13T15:44:23.874Z,19.80
2024-03-13T15:46:51.990Z,19.81
2024-03-13T15:49:19.812Z,19.81
2024-03-13T15:51:48.732Z,19.83
2024-03-13T15:54:16.311Z,19.82
2024-03-13T15:56:43.947Z,19.83
2024-03-13T15:59:13.856Z,19.82
2024-03-13T16:01:41.651Z,19.74
2024-03-13T16:04:09.636Z,19.79
2024-03-13T16:06:38.167Z,19.75
2024-03-13T16:09:13.076Z,19.80
2024-03-13T16:11:43.521Z,19.76
2024-03-13T16:14:11.766Z,19.71
2024-03-13T16:16:39.272Z,19.65
2024-03-13T16:19:06.873Z,19.68
2024-03-13T16:21:35.600Z,19.63
2024-03-13T16:24:04.767Z,19.63
2024-03-13T16:26:32.150Z,19.62
2024-03-13T16:28:59.469Z,19.56
2024-03-13T16:31:26.640Z,19.54
2024-03-13T16:33:54.711Z,19.49
2024-03-13T16:36:21.964Z,19.47
2024-03-13T16:38:56.701Z,19.43
2024-03-13T16:41:23.828Z,19.40
2024-03-13T16:43:51.006Z,19.39
2024-03-13T16:46:18.502Z,19.37
2024-03-13T16:48:45.755Z,19.36
2024-03-13T16:51:13.066Z,19.32
2024-03-13T16:53:40.327Z,19.31
2024-03-13T16:56:10.790Z,19.30
2024-03-13T16:58:37.983Z,19.29
2024-03-13T17:01:05.259Z,19.25
2024-03-13T17:03:33.778Z,19.28
2024-03-13T17:06:01.056Z,19.26
2024-03-13T17:08:28.296Z,19.28
2024-03-13T17:10:55.396Z,19.28
2024-03-13T17:13:22.518Z,19.25
2024-03-13T17:15:49.633Z,19.26
2024-03-13T17:18:16.886Z,19.23
2024-03-13T17:20:45.996Z,19.21
2024-03-13T17:23:13.375Z,19.16
2024-03-13T17:25:43.463Z,19.21
2024-03-13T17:28:10.676Z,19.19
2024-03-13T17:30:37.808Z,19.17
2024-03-13T17:33:06.694Z,19.17
2024-03-13T17:35:35.050Z,19.07
2024-03-13T17:38:03.592Z,19.14
2024-03-13T17:40:30.641Z,19.13
2024-03-13T17:42:57.845Z,19.08
2024-03-13T17:45:25.876Z,19.12
2024-03-13T17:47:53.184Z,19.04
2024-03-13T17:50:20.256Z,19.02
2024-03-13T17:52:47.415Z,19.08
2024-03-13T17:55:14.663Z,19.02
2024-03-13T17:57:41.807Z,19.06
2024-03-13T18:00:09.808Z,19.05
2024-03-13T18:02:39.249Z,19.03
2024-03-13T18:05:11.252Z,19.00
2024-03-13T18:07:39.430Z,18.99
2024-03-13T18:10:07.618Z,19.01
2024-03-13T18:12:36.350Z,18.99
2024-03-13T18:15:04.101Z,18.98
2024-03-13T18:17:31.228Z,18.93
2024-03-13T18:19:58.331Z,18.97
2024-03-13T18:22:25.889Z,18.98
2024-03-13T18:24:54.717Z,18.94
2024-03-13T18:27:22.251Z,18.95
2024-03-13T18:29:49.462Z,18.97
2024-03-13T18:32:16.716Z,18.99
2024-03-13T18:34:44.584Z,18.98
2024-03-13T18:37:11.692Z,18.98
2024-03-13T18:39:40.729Z,18.99
2024-03-13T18:42:07.974Z,18.97
2024-03-13T18:44:35.303Z,18.97
2024-03-13T18:47:02.882Z,18.96
2024-03-13T18:49:30.094Z,18.96
2024-03-13T18:51:57.284Z,18.91
2024-03-13T18:54:24.594Z,18.93
2024-03-13T18:56:51.912Z,18.92
2024-03-13T18:59:19.754Z,18.87
2024-03-13T19:01:47.206Z,18.78
2024-03-13T19:04:14.436Z,18.83
2024-03-13T19:06:42.298Z,18.82
2024-03-13T19:09:10.251Z,18.83
2024-03-13T19:11:39.290Z,18.81
2024-03-13T19:14:06.602Z,18.73
2024-03-13T19:16:36.954Z,18.83
2024-03-13T19:19:04.825Z,18.80
2024-03-13T19:21:32.265Z,18.79
2024-03-13T19:23:59.516Z,18.80
2024-03-13T19:26:30.867Z,18.79
2024-03-13T19:28:58.136Z,18.78
2024-03-13T19:31:31.276Z,18.73
2024-03-13T19:34:04.696Z,18.76
2024-03-13T19:36:32.013Z,18.77
2024-03-13T19:38:59.217Z,18.73
2024-03-13T19:41:26.571Z,18.78
2024-03-13T19:43:55.177Z,18.74
2024-03-13T19:46:22.251Z,18.73
2024-03-13T19:48:50.011Z,18.73
2024-03-13T19:51:17.438Z,18.69
2024-03-13T19:53:44.687Z,18.66
2024-03-13T19:56:12.316Z,18.59
2024-03-13T19:58:40.454Z,18.62
2024-03-13T20:01:07.865Z,18.63
2024-03-13T20:03:35.433Z,18.64
2024-03-13T20:06:03.042Z,18.63
2024-03-13T20:08:31.474Z,18.62
2024-03-13T20:11:02.386Z,18.60
2024-03-13T20:13:29.721Z,18.61
2024-03-13T20:15:57.235Z,18.60
2024-03-13T20:18:24.457Z,18.56
2024-03-13T20:20:51.856Z,18.58
2024-03-13T20:23:18.944Z,18.60
2024-03-13T20:25:46.904Z,18.62
2024-03-13T20:28:15.040Z,18.63
2024-03-13T20:30:42.382Z,18.63
2024-03-13T20:33:11.279Z,18.63
2024-03-13T20:35:39.485Z,18.60
2024-03-13T20:38:06.722Z,18.64
2024-03-13T20:40:37.849Z,18.63
2024-03-13T20:43:06.366Z,18.62
2024-03-13T20:45:33.544Z,18.65
2024-03-13T20:48:01.032Z,18.66
2024-03-13T20:50:28.148Z,18.65
2024-03-13T20:52:55.174Z,18.67
2024-03-13T20:55:23.189Z,18.66
2024-03-13T20:57:50.354Z,18.66
2024-03-13T21:00:22.092Z,18.63
2024-03-13T21:02:51.992Z,18.59
2024-03-13T21:05:19.156Z,18.56
2024-03-13T21:07:46.300Z,18.58
2024-03-13T21:10:15.249Z,18.58
2024-03-13T21:12:45.035Z,18.58
2024-03-13T21:15:12.551Z,18.55
2024-03-13T21:17:41.591Z,18.57
2024-03-13T21:20:11.263Z,18.55
2024-03-13T21:22:41.233Z,18.57
2024-03-13T21:25:09.371Z,18.58
2024-03-13T21:27:39.739Z,18.53
2024-03-13T21:30:11.395Z,18.58
2024-03-13T21:32:38.709Z,18.56
2024-03-13T21:35:06.200Z,18.56
2024-03-13T21:37:33.258Z,18.53
2024-03-13T21:40:00.525Z,18.50
2024-03-13T21:42:27.905Z,18.49
2024-03-13T21:44:55.777Z,18.50
2024-03-13T21:47:22.988Z,18.48
2024-03-13T21:49:50.714Z,18.47
2024-03-13T21:52:17.909Z,18.46
2024-03-13T21:54:45.034Z,18.45
2024-03-13T21:57:12.967Z,18.42
2024-03-13T21:59:40.196Z,18.40
2024-03-13T22:02:08.812Z,18.43
2024-03-13T22:04:35.894Z,18.39
2024-03-13T22:07:04.588Z,18.40
2024-03-13T22:09:32.284Z,18.38
2024-03-13T22:11:59.784Z,18.37
2024-03-13T22:14:28.656Z,18.33
2024-03-13T22:16:55.774Z,18.34
2024-03-13T22:19:22.892Z,18.34
2024-03-13T22:21:50.052Z,18.31
2024-03-13T22:24:17.246Z,18.31
2024-03-13T22:26:46.853Z,18.26
2024-03-13T22:29:14.152Z,18.26
2024-03-13T22:31:41.825Z,18.27
2024-03-13T22:34:09.004Z,18.25
2024-03-13T22:36:36.054Z,18.27
2024-03-13T22:39:06.436Z,18.25
2024-03-13T22:41:33.563Z,18.22
2024-03-13T22:44:00.981Z,18.26
2024-03-13T22:46:28.990Z,18.24
2024-03-13T22:48:56.179Z,18.27
2024-03-13T22:51:23.670Z,18.24
2024-03-13T22:53:51.431Z,18.21
2024-03-13T22:56:18.655Z,18.23
2024-03-13T22:58:45.792Z,18.22
2024-03-13T23:01:14.042Z,18.23
2024-03-13T23:03:41.662Z,18.22
2024-03-13T23:06:09.413Z,18.21
2024-03-13T23:08:38.199Z,18.19
2024-03-13T23:11:05.466Z,18.18
2024-03-13T23:13:32.555Z,18.16
2024-03-13T23:15:59.686Z,18.15
2024-03-13T23:18:29.158Z,18.16
2024-03-13T23:20:56.535Z,18.14
2024-03-13T23:23:27.514Z,18.13
2024-03-13T23:25:54.994Z,18.09
2024-03-13T23:28:22.477Z,18.13
2024-03-13T23:30:49.804Z,18.14
2024-03-13T23:33:17.141Z,18.11
2024-03-13T23:35:44.303Z,18.14
2024-03-13T23:38:11.788Z,18.16
2024-03-13T23:40:39.209Z,18.12
2024-03-13T23:43:06.415Z,18.17
2024-03-13T23:45:33.702Z,18.18
2024-03-13T23:48:00.959Z,18.18
2024-03-13T23:50:28.245Z,18.18
2024-03-13T23:52:55.404Z,18.17
2024-03-13T23:55:22.590Z,18.16
2024-03-13T23:57:50.438Z,18.17
